Cape Peony — 3FDX6 — position and weather

sailwx.info

Track history (hours):
 
Tides and Currents Weather Stations Pressure Air Temp Water Temp Dewpoint Dewpoint Depression Visibility Wind Speed Wind Dir Waves Ship Positions

Cape Peony

Last reported at 2014-Jul-25 17:33 UTC. Time now 2014-Jul-29 02:42 UTC.
Position S 34°06' E 018°03'.

Length 292 m; draft 18.3 m.

Type: Cargo ship. MMSI: 373590000.

Date/timePositionNaut miles runAvg speedWind from/ knotsBaromVisibWave heightAir tempDewpointWater temp
2014-Jul-25 17:33S 34°06' E 018°03'9 9.2
2014-Jul-25 16:32S 34°14' E 018°09'12 8.8
2014-Jul-25 15:13S 34°24' E 018°17'6 8.7
2014-Jul-25 14:33S 34°28' E 018°22'8 8.5
2014-Jul-25 13:33S 34°31' E 018°31'8 8.4
2014-Jul-25 12:33S 34°35' E 018°41'8 8.4
2014-Jul-25 11:33S 34°39' E 018°50'9 8.5
2014-Jul-25 10:33S 34°43' E 018°58'29810.2
2014-Jul-24 05:23S 34°25' E 024°60'1211.8
2014-Jul-24 04:22S 34°22' E 025°14'  
Track history (hours):
 
Tides and Currents Weather Stations Pressure Air Temp Water Temp Dewpoint Dewpoint Depression Visibility Wind Speed Wind Dir Waves Ship Positions

Cape Peony

Last reported at 2014-Jul-25 17:33 UTC. Time now 2014-Jul-29 02:42 UTC.
Position S 34°06' E 018°03'.

Length 292 m; draft 18.3 m.

Type: Cargo ship. MMSI: 373590000.

Date/timePositionNaut miles runAvg speedWind from/ knotsBaromVisibWave heightAir tempDewpointWater temp
2014-Jul-25 17:33S 34°06' E 018°03'9 9.2
2014-Jul-25 16:32S 34°14' E 018°09'12 8.8
2014-Jul-25 15:13S 34°24' E 018°17'6 8.7
2014-Jul-25 14:33S 34°28' E 018°22'8 8.5
2014-Jul-25 13:33S 34°31' E 018°31'8 8.4
2014-Jul-25 12:33S 34°35' E 018°41'8 8.4
2014-Jul-25 11:33S 34°39' E 018°50'9 8.5
2014-Jul-25 10:33S 34°43' E 018°58'29810.2
2014-Jul-24 05:23S 34°25' E 024°60'1211.8
2014-Jul-24 04:22S 34°22' E 025°14'  

Dump ship's entire track history